createdAt,value
2019-03-15T00:00:55.501Z,6.40
2019-03-15T00:03:23.361Z,6.40
2019-03-15T00:05:51.627Z,6.30
2019-03-15T00:08:19.522Z,6.40
2019-03-15T00:10:47.365Z,6.40
2019-03-15T00:13:15.252Z,6.30
2019-03-15T00:15:43.101Z,6.30
2019-03-15T00:18:10.988Z,6.30
2019-03-15T00:20:38.831Z,6.30
2019-03-15T00:23:06.784Z,6.30
2019-03-15T00:25:34.891Z,6.30
2019-03-15T00:28:02.818Z,6.30
2019-03-15T00:30:30.667Z,6.20
2019-03-15T00:32:58.635Z,6.20
2019-03-15T00:35:26.665Z,6.30
2019-03-15T00:37:54.677Z,6.30
2019-03-15T00:40:22.469Z,6.30
2019-03-15T00:42:50.368Z,6.30
2019-03-15T00:45:18.264Z,6.30
2019-03-15T00:47:46.097Z,6.30
2019-03-15T00:50:14.048Z,6.30
2019-03-15T00:52:41.928Z,6.30
2019-03-15T00:55:09.999Z,6.30
2019-03-15T00:57:37.900Z,6.30
2019-03-15T01:00:06.766Z,6.30
2019-03-15T01:02:34.712Z,6.30
2019-03-15T01:05:02.520Z,6.20
2019-03-15T01:07:30.353Z,6.20
2019-03-15T01:09:58.257Z,6.20
2019-03-15T01:12:26.088Z,6.30
2019-03-15T01:14:54.028Z,6.30
2019-03-15T01:17:22.039Z,6.30
2019-03-15T01:19:49.918Z,6.30
2019-03-15T01:22:17.766Z,6.30
2019-03-15T01:24:45.679Z,6.30
2019-03-15T01:27:13.580Z,6.40
2019-03-15T01:29:41.586Z,6.40
2019-03-15T01:32:09.452Z,6.40
2019-03-15T01:34:37.404Z,6.40
2019-03-15T01:37:05.556Z,6.40
2019-03-15T01:39:33.387Z,6.40
2019-03-15T01:42:01.223Z,6.40
2019-03-15T01:44:29.106Z,6.40
2019-03-15T01:46:56.955Z,6.50
2019-03-15T01:49:24.851Z,6.50
2019-03-15T01:51:52.689Z,6.50
2019-03-15T01:54:20.600Z,6.50
2019-03-15T01:56:48.418Z,6.50
2019-03-15T01:59:16.654Z,6.50
2019-03-15T02:01:44.485Z,6.40
2019-03-15T02:04:12.338Z,6.50
2019-03-15T02:06:40.134Z,6.40
2019-03-15T02:09:11.322Z,6.40
2019-03-15T02:11:39.144Z,6.40
2019-03-15T02:14:06.986Z,6.30
2019-03-15T02:16:34.781Z,6.30
2019-03-15T02:19:02.572Z,6.30
2019-03-15T02:21:30.404Z,6.40
2019-03-15T02:23:58.161Z,6.40
2019-03-15T02:26:26.022Z,6.40
2019-03-15T02:28:53.931Z,6.30
2019-03-15T02:31:22.073Z,6.40
2019-03-15T02:33:49.898Z,6.30
2019-03-15T02:36:17.816Z,6.30
2019-03-15T02:38:45.965Z,6.40
2019-03-15T02:41:13.774Z,6.40
2019-03-15T02:43:41.534Z,6.40
2019-03-15T02:46:09.656Z,6.40
2019-03-15T02:48:37.605Z,6.40
2019-03-15T02:51:05.522Z,6.40
2019-03-15T02:53:34.385Z,6.40
2019-03-15T02:56:02.811Z,6.40
2019-03-15T02:58:30.900Z,6.40
2019-03-15T03:00:58.760Z,6.40
2019-03-15T03:03:26.592Z,6.40
2019-03-15T03:05:54.479Z,6.40
2019-03-15T03:08:22.322Z,6.40
2019-03-15T03:10:50.196Z,6.40
2019-03-15T03:13:18.057Z,6.40
2019-03-15T03:15:45.953Z,6.40
2019-03-15T03:18:13.771Z,6.40
2019-03-15T03:20:41.708Z,6.40
2019-03-15T03:23:09.520Z,6.40
2019-03-15T03:25:37.410Z,6.40
2019-03-15T03:28:05.260Z,6.40
2019-03-15T03:30:33.158Z,6.40
2019-03-15T03:33:01.122Z,6.40
2019-03-15T03:35:29.227Z,6.30
2019-03-15T03:37:57.044Z,6.30
2019-03-15T03:40:24.883Z,6.20
2019-03-15T03:42:52.711Z,6.10
2019-03-15T03:45:23.162Z,6.10
2019-03-15T03:47:50.059Z,6.10
2019-03-15T03:50:17.898Z,6.00
2019-03-15T03:52:46.187Z,6.00
2019-03-15T03:55:14.078Z,6.00
2019-03-15T03:57:41.931Z,6.00
2019-03-15T04:00:10.004Z,6.00
2019-03-15T04:02:37.885Z,6.00
2019-03-15T04:05:05.992Z,6.00
2019-03-15T04:07:33.906Z,6.00
2019-03-15T04:10:02.004Z,6.00
2019-03-15T04:12:29.856Z,6.10
2019-03-15T04:14:57.755Z,6.10
2019-03-15T04:17:25.578Z,6.10
2019-03-15T04:19:53.438Z,6.20
2019-03-15T04:22:21.618Z,6.20
2019-03-15T04:24:49.571Z,6.20
2019-03-15T04:27:18.114Z,6.30
2019-03-15T04:29:45.927Z,6.30
2019-03-15T04:32:13.811Z,6.30
2019-03-15T04:34:41.678Z,6.30
2019-03-15T04:37:10.036Z,6.30
2019-03-15T04:39:38.016Z,6.40
2019-03-15T04:42:05.812Z,6.40
2019-03-15T04:44:33.630Z,6.40
2019-03-15T04:47:01.501Z,6.40
2019-03-15T04:49:29.543Z,6.40
2019-03-15T04:51:57.459Z,6.40
2019-03-15T04:54:25.313Z,6.40
2019-03-15T04:56:53.217Z,6.40
2019-03-15T04:59:23.917Z,6.40
2019-03-15T05:01:50.867Z,6.50
2019-03-15T05:04:18.740Z,6.50
2019-03-15T05:06:46.634Z,6.40
2019-03-15T05:09:14.468Z,6.40
2019-03-15T05:11:42.347Z,6.40
2019-03-15T05:14:10.227Z,6.40
2019-03-15T05:16:38.187Z,6.40
2019-03-15T05:19:06.174Z,6.30
2019-03-15T05:21:34.028Z,6.30
2019-03-15T05:24:01.901Z,6.30
2019-03-15T05:26:29.763Z,6.30
2019-03-15T05:28:57.643Z,6.30
2019-03-15T05:31:25.487Z,6.20
2019-03-15T05:33:53.610Z,6.30
2019-03-15T05:36:21.433Z,6.20
2019-03-15T05:38:49.310Z,6.20
2019-03-15T05:41:17.178Z,6.20
2019-03-15T05:43:45.056Z,6.10
2019-03-15T05:46:12.894Z,6.10
2019-03-15T05:48:40.789Z,6.00
2019-03-15T05:51:08.557Z,6.00
2019-03-15T05:53:36.341Z,5.90
2019-03-15T05:56:04.517Z,5.90
2019-03-15T05:58:32.726Z,5.80
2019-03-15T06:01:00.611Z,5.80
2019-03-15T06:03:28.499Z,5.80
2019-03-15T06:05:56.644Z,5.80
2019-03-15T06:08:27.429Z,5.80
2019-03-15T06:10:54.925Z,5.90
2019-03-15T06:13:23.422Z,5.90
2019-03-15T06:15:51.382Z,6.00
2019-03-15T06:18:19.283Z,6.00
2019-03-15T06:20:47.135Z,6.10
2019-03-15T06:23:16.914Z,6.10
2019-03-15T06:25:45.287Z,6.10
2019-03-15T06:28:13.102Z,6.20
2019-03-15T06:30:40.943Z,6.30
2019-03-15T06:33:08.847Z,6.30
2019-03-15T06:35:36.677Z,6.40
2019-03-15T06:38:04.595Z,6.40
2019-03-15T06:40:32.576Z,6.50
2019-03-15T06:43:00.606Z,6.50
2019-03-15T06:45:28.445Z,6.60
2019-03-15T06:47:56.323Z,6.60
2019-03-15T06:50:24.229Z,6.70
2019-03-15T06:52:52.535Z,6.70
2019-03-15T06:55:20.363Z,6.70
2019-03-15T06:57:48.206Z,6.70
2019-03-15T07:00:16.103Z,6.70
2019-03-15T07:02:43.868Z,6.80
2019-03-15T07:05:12.688Z,6.80
2019-03-15T07:07:40.712Z,6.80
2019-03-15T07:10:09.167Z,6.80
2019-03-15T07:12:39.984Z,6.80
2019-03-15T07:15:06.673Z,6.90
2019-03-15T07:17:34.614Z,6.90
2019-03-15T07:20:02.534Z,6.90
2019-03-15T07:22:30.353Z,7.00
2019-03-15T07:24:58.261Z,7.00
2019-03-15T07:27:26.408Z,7.10
2019-03-15T07:29:54.300Z,7.20
2019-03-15T07:32:22.147Z,7.30
2019-03-15T07:34:50.022Z,7.40
2019-03-15T07:37:17.873Z,7.30
2019-03-15T07:39:45.768Z,7.40
2019-03-15T07:42:13.604Z,7.40
2019-03-15T07:44:41.498Z,7.40
2019-03-15T07:47:09.380Z,7.50
2019-03-15T07:49:37.494Z,7.60
2019-03-15T07:52:05.348Z,7.90
2019-03-15T07:54:37.802Z,8.00
2019-03-15T07:57:02.700Z,8.10
2019-03-15T07:59:30.560Z,8.10
2019-03-15T08:01:58.958Z,8.00
2019-03-15T08:04:26.735Z,7.90
2019-03-15T08:06:54.527Z,8.00
2019-03-15T08:09:22.440Z,8.10
2019-03-15T08:11:50.276Z,8.10
2019-03-15T08:14:18.172Z,8.20
2019-03-15T08:16:46.007Z,8.30
2019-03-15T08:19:13.786Z,8.40
2019-03-15T08:21:41.667Z,8.30
2019-03-15T08:24:09.690Z,8.20
2019-03-15T08:26:37.522Z,8.20
2019-03-15T08:29:05.308Z,8.20
2019-03-15T08:31:33.136Z,8.30
2019-03-15T08:34:00.982Z,8.30
2019-03-15T08:36:28.907Z,8.20
2019-03-15T08:38:56.730Z,8.20
2019-03-15T08:41:24.608Z,8.20
2019-03-15T08:43:52.388Z,8.40
2019-03-15T08:46:20.230Z,8.40
2019-03-15T08:48:48.062Z,8.50
2019-03-15T08:51:15.967Z,8.60
2019-03-15T08:53:43.823Z,8.50
2019-03-15T08:56:14.335Z,8.50
2019-03-15T08:58:41.289Z,8.60
2019-03-15T09:01:10.999Z,8.60
2019-03-15T09:03:38.776Z,8.60
2019-03-15T09:06:06.740Z,8.60
2019-03-15T09:08:37.220Z,8.70
2019-03-15T09:11:04.256Z,8.90
2019-03-15T09:13:32.318Z,9.00
2019-03-15T09:16:00.252Z,9.20
2019-03-15T09:18:28.159Z,9.20
2019-03-15T09:20:55.958Z,9.30
2019-03-15T09:23:23.773Z,9.40
2019-03-15T09:25:51.660Z,9.60
2019-03-15T09:28:19.496Z,9.60
2019-03-15T09:30:47.391Z,9.60
2019-03-15T09:33:15.485Z,9.60
2019-03-15T09:35:43.326Z,9.70
2019-03-15T09:38:11.190Z,9.70
2019-03-15T09:40:39.070Z,9.70
2019-03-15T09:43:06.902Z,9.80
2019-03-15T09:45:34.764Z,9.60
2019-03-15T09:48:02.653Z,9.50
2019-03-15T09:50:40.209Z,9.50
2019-03-15T09:53:00.113Z,9.60
2019-03-15T09:55:33.341Z,9.80
2019-03-15T09:57:57.603Z,9.90
2019-03-15T10:00:25.370Z,9.80
2019-03-15T10:02:55.779Z,9.70
2019-03-15T10:05:22.714Z,9.80
2019-03-15T10:07:50.532Z,9.90
2019-03-15T10:10:19.732Z,9.90
2019-03-15T10:12:47.580Z,10.10
2019-03-15T10:15:15.615Z,10.20
2019-03-15T10:17:43.427Z,10.40
2019-03-15T10:20:12.631Z,10.60
2019-03-15T10:22:41.172Z,10.60
2019-03-15T10:25:09.089Z,10.60
2019-03-15T10:27:36.908Z,10.70
2019-03-15T10:32:32.142Z,10.60
2019-03-15T10:34:59.922Z,10.50
2019-03-15T10:37:27.718Z,10.50
2019-03-15T10:39:55.548Z,10.50
2019-03-15T10:42:23.694Z,10.50
2019-03-15T10:44:51.473Z,10.50
2019-03-15T10:47:19.360Z,10.40
2019-03-15T10:49:47.194Z,10.30
2019-03-15T10:52:15.108Z,10.30
2019-03-15T10:54:42.939Z,10.30
2019-03-15T10:57:10.817Z,10.30
2019-03-15T10:59:38.654Z,10.30
2019-03-15T11:02:06.845Z,10.20
2019-03-15T11:04:34.650Z,10.10
2019-03-15T11:07:02.571Z,10.10
2019-03-15T11:09:30.607Z,10.00
2019-03-15T11:11:58.482Z,10.10
2019-03-15T11:14:26.336Z,10.30
2019-03-15T11:48:53.742Z,11.50
2019-03-15T11:51:21.648Z,11.40
2019-03-15T11:53:49.445Z,11.20
2019-03-15T11:56:26.830Z,11.20
2019-03-15T11:58:47.063Z,11.30
2019-03-15T12:01:14.956Z,11.40
2019-03-15T12:03:52.605Z,11.30
2019-03-15T12:06:12.327Z,11.40
2019-03-15T12:08:40.194Z,11.40
2019-03-15T12:11:08.081Z,11.40
2019-03-15T12:16:03.787Z,11.40
2019-03-15T12:18:31.670Z,11.50
2019-03-15T12:20:59.494Z,11.50
2019-03-15T12:23:27.298Z,11.50
2019-03-15T12:25:55.128Z,11.30
2019-03-15T12:28:22.962Z,11.00
2019-03-15T12:30:50.735Z,10.90
2019-03-15T12:33:18.567Z,10.80
2019-03-15T12:35:46.811Z,10.80
2019-03-15T12:38:14.763Z,10.70
2019-03-15T12:40:42.596Z,10.70
2019-03-15T12:43:10.544Z,10.60
2019-03-15T12:45:38.611Z,10.50
2019-03-15T12:48:06.402Z,10.50
2019-03-15T12:50:34.333Z,10.40
2019-03-15T12:53:02.118Z,10.20
2019-03-15T12:55:29.928Z,10.10
2019-03-15T12:57:57.750Z,10.00
2019-03-15T13:00:25.561Z,10.10
2019-03-15T13:02:53.365Z,10.30
2019-03-15T13:05:21.186Z,10.40
2019-03-15T13:07:48.966Z,10.50
2019-03-15T13:10:16.785Z,10.60
2019-03-15T13:12:44.635Z,10.50
2019-03-15T13:15:13.721Z,10.40
2019-03-15T13:17:41.483Z,10.40
2019-03-15T13:20:10.155Z,10.30
2019-03-15T13:22:37.945Z,10.20
2019-03-15T13:25:06.164Z,10.20
2019-03-15T13:27:34.011Z,10.30
2019-03-15T13:30:01.835Z,10.20
2019-03-15T13:32:29.691Z,10.10
2019-03-15T13:34:57.495Z,9.90
2019-03-15T13:37:25.261Z,9.80
2019-03-15T13:39:53.072Z,9.70
2019-03-15T13:42:20.868Z,9.60
2019-03-15T13:44:48.663Z,9.60
2019-03-15T13:47:16.535Z,9.60
2019-03-15T13:49:44.348Z,9.60
2019-03-15T13:52:12.445Z,9.70
2019-03-15T13:54:40.533Z,9.70
2019-03-15T13:57:20.709Z,9.70
2019-03-15T13:59:37.915Z,9.40
2019-03-15T14:02:07.716Z,9.40
2019-03-15T14:04:35.555Z,9.10
2019-03-15T14:07:03.556Z,9.00
2019-03-15T14:09:31.374Z,8.80
2019-03-15T14:11:59.171Z,8.70
2019-03-15T14:14:26.952Z,8.50
2019-03-15T14:16:54.748Z,8.50
2019-03-15T14:19:22.526Z,8.50
2019-03-15T14:21:50.336Z,8.50
2019-03-15T14:24:18.097Z,8.40
2019-03-15T14:26:45.903Z,8.40
2019-03-15T14:29:13.735Z,8.30
2019-03-15T14:31:41.526Z,8.20
2019-03-15T14:34:09.360Z,8.10
2019-03-15T14:36:37.158Z,8.10
2019-03-15T14:39:05.871Z,8.00
2019-03-15T14:41:34.113Z,8.00
2019-03-15T14:44:02.178Z,8.00
2019-03-15T14:46:30.092Z,8.00
2019-03-15T14:48:57.883Z,7.90
2019-03-15T14:51:25.670Z,7.90
2019-03-15T14:53:53.448Z,7.90
2019-03-15T14:56:21.256Z,8.00
2019-03-15T14:58:49.055Z,7.90
2019-03-15T15:01:16.875Z,7.90
2019-03-15T15:03:44.713Z,7.80
2019-03-15T15:06:12.574Z,7.80
2019-03-15T15:08:40.454Z,7.80
2019-03-15T15:11:08.318Z,7.90
2019-03-15T15:13:36.146Z,7.90
2019-03-15T15:16:03.957Z,7.90
2019-03-15T15:18:31.730Z,8.00
2019-03-15T15:20:59.593Z,8.00
2019-03-15T15:23:27.695Z,8.00
2019-03-15T15:25:55.518Z,8.00
2019-03-15T15:28:23.328Z,8.00
2019-03-15T15:30:51.100Z,8.10
2019-03-15T15:33:18.898Z,8.10
2019-03-15T15:35:46.983Z,8.20
2019-03-15T15:38:14.852Z,8.20
2019-03-15T15:40:42.902Z,8.30
2019-03-15T15:43:10.812Z,8.40
2019-03-15T15:45:38.592Z,8.40
2019-03-15T15:48:06.384Z,8.40
2019-03-15T15:50:34.259Z,8.50
2019-03-15T15:53:02.438Z,8.50
2019-03-15T15:55:30.218Z,8.50
2019-03-15T15:57:58.080Z,8.60
2019-03-15T16:00:25.866Z,8.60
2019-03-15T16:02:54.504Z,8.80
2019-03-15T16:05:22.306Z,8.80
2019-03-15T16:07:50.105Z,8.90
2019-03-15T16:10:18.591Z,9.00
2019-03-15T16:12:46.520Z,9.10
2019-03-15T16:15:14.483Z,9.10
2019-03-15T16:17:45.183Z,9.10
2019-03-15T16:20:11.800Z,9.20
2019-03-15T16:22:39.635Z,9.20
2019-03-15T16:25:07.557Z,9.20
2019-03-15T16:27:35.458Z,9.20
2019-03-15T16:30:03.448Z,9.20
2019-03-15T16:32:31.250Z,9.20
2019-03-15T16:34:59.038Z,9.20
2019-03-15T16:37:26.845Z,9.10
2019-03-15T16:39:56.478Z,9.10
2019-03-15T16:42:24.118Z,9.10
2019-03-15T16:44:51.896Z,9.10
2019-03-15T16:47:19.732Z,9.00
2019-03-15T16:49:47.577Z,9.00
2019-03-15T16:52:15.439Z,9.00
2019-03-15T16:54:43.335Z,9.00
2019-03-15T16:57:11.139Z,9.00
2019-03-15T16:59:39.093Z,9.00
2019-03-15T17:02:07.047Z,8.90
2019-03-15T17:04:34.943Z,8.90
2019-03-15T17:07:02.852Z,8.90
2019-03-15T17:09:30.836Z,8.90
2019-03-15T17:11:58.857Z,8.90
2019-03-15T17:14:26.830Z,8.90
2019-03-15T17:16:54.920Z,8.90
2019-03-15T17:19:22.883Z,8.80
2019-03-15T17:21:50.831Z,8.80
2019-03-15T17:24:18.754Z,8.70
2019-03-15T17:26:46.746Z,8.70
2019-03-15T17:29:14.824Z,8.70
2019-03-15T17:31:42.771Z,8.80
2019-03-15T17:34:10.768Z,8.90
2019-03-15T17:36:39.699Z,9.00
2019-03-15T17:39:07.802Z,9.00
2019-03-15T17:41:35.634Z,9.10
2019-03-15T17:44:03.556Z,9.10
2019-03-15T17:46:31.412Z,9.10
2019-03-15T17:48:59.212Z,9.10
2019-03-15T17:51:27.064Z,9.10
2019-03-15T17:53:54.956Z,9.10
2019-03-15T17:56:22.779Z,9.10
2019-03-15T17:58:51.053Z,9.00
2019-03-15T18:01:18.930Z,9.00
2019-03-15T18:03:47.486Z,8.90
2019-03-15T18:06:15.397Z,8.80
2019-03-15T18:08:43.287Z,8.90
2019-03-15T18:11:11.110Z,8.90
2019-03-15T18:13:38.993Z,9.00
2019-03-15T18:16:06.860Z,9.00
2019-03-15T18:18:34.756Z,9.10
2019-03-15T18:21:02.608Z,9.10
2019-03-15T18:23:30.490Z,9.10
2019-03-15T18:25:58.385Z,9.00
2019-03-15T18:28:26.352Z,9.00
2019-03-15T18:30:54.161Z,8.90
2019-03-15T18:33:21.969Z,8.80
2019-03-15T18:35:49.764Z,8.80
2019-03-15T18:38:17.549Z,8.80
2019-03-15T18:40:45.856Z,8.70
2019-03-15T18:43:13.706Z,8.70
2019-03-15T18:45:41.879Z,8.70
2019-03-15T18:48:09.655Z,8.70
2019-03-15T18:50:37.666Z,8.70
2019-03-15T18:53:05.713Z,8.70
2019-03-15T18:55:33.596Z,8.80
2019-03-15T18:58:01.423Z,8.80
2019-03-15T19:00:32.020Z,8.80
2019-03-15T19:03:00.233Z,8.80
2019-03-15T19:05:28.397Z,8.80
2019-03-15T19:07:56.211Z,8.80
2019-03-15T19:10:24.010Z,8.80
2019-03-15T19:12:51.790Z,8.80
2019-03-15T19:15:19.727Z,8.70
2019-03-15T19:17:47.811Z,8.70
2019-03-15T19:20:15.817Z,8.60
2019-03-15T19:22:44.080Z,8.60
2019-03-15T19:25:11.971Z,8.60
2019-03-15T19:27:39.889Z,8.60
2019-03-15T19:30:08.233Z,8.60
2019-03-15T19:32:36.332Z,8.60
2019-03-15T19:35:04.325Z,8.50
2019-03-15T19:37:32.116Z,8.40
2019-03-15T19:39:59.924Z,8.40
2019-03-15T19:42:27.712Z,8.40
2019-03-15T19:44:55.511Z,8.40
2019-03-15T19:47:23.539Z,8.30
2019-03-15T19:49:51.402Z,8.30
2019-03-15T19:52:19.187Z,8.30
2019-03-15T19:54:59.530Z,8.20
2019-03-15T19:57:16.480Z,8.20
2019-03-15T19:59:44.311Z,8.10
2019-03-15T20:02:12.108Z,8.10
2019-03-15T20:04:39.885Z,8.10
2019-03-15T20:07:07.684Z,8.10
2019-03-15T20:09:35.475Z,8.00
2019-03-15T20:12:03.267Z,8.10
2019-03-15T20:14:31.047Z,8.00
2019-03-15T20:16:58.839Z,8.00
2019-03-15T20:19:27.035Z,7.90
2019-03-15T20:21:54.843Z,7.90
2019-03-15T20:24:22.607Z,7.90
2019-03-15T20:26:50.828Z,7.90
2019-03-15T20:29:18.878Z,7.90
2019-03-15T20:31:46.686Z,7.90
2019-03-15T20:34:14.454Z,7.80
2019-03-15T20:36:42.262Z,7.80
2019-03-15T20:39:10.036Z,7.90
2019-03-15T20:41:37.838Z,7.80
2019-03-15T20:44:05.694Z,7.80
2019-03-15T20:46:36.121Z,7.80
2019-03-15T20:49:03.475Z,7.80
2019-03-15T20:51:31.274Z,7.70
2019-03-15T20:54:00.055Z,7.70
2019-03-15T20:56:27.847Z,7.70
2019-03-15T20:58:55.660Z,7.70
2019-03-15T21:01:23.446Z,7.70
2019-03-15T21:03:56.113Z,7.70
2019-03-15T21:06:20.764Z,7.70
2019-03-15T21:08:48.547Z,7.60
2019-03-15T21:11:16.343Z,7.60
2019-03-15T21:13:44.140Z,7.60
2019-03-15T21:16:12.167Z,7.60
2019-03-15T21:18:39.965Z,7.60
2019-03-15T21:21:07.755Z,7.60
2019-03-15T21:23:36.011Z,7.60
2019-03-15T21:26:03.889Z,7.50
2019-03-15T21:28:31.689Z,7.60
2019-03-15T21:30:59.543Z,7.60
2019-03-15T21:33:27.437Z,7.60
2019-03-15T21:35:55.262Z,7.50
2019-03-15T21:38:23.165Z,7.50
2019-03-15T21:40:51.008Z,7.50
2019-03-15T21:43:18.896Z,7.40
2019-03-15T21:45:46.751Z,7.40
2019-03-15T21:48:14.625Z,7.40
2019-03-15T21:50:42.395Z,7.40
2019-03-15T21:53:10.250Z,7.30
2019-03-15T21:55:38.109Z,7.30
2019-03-15T21:58:06.263Z,7.30
2019-03-15T22:00:34.150Z,7.20
2019-03-15T22:03:02.021Z,7.20
2019-03-15T22:05:29.904Z,7.20
2019-03-15T22:07:57.859Z,7.20
2019-03-15T22:10:26.237Z,7.20
2019-03-15T22:12:54.165Z,7.10
2019-03-15T22:15:21.963Z,7.20
2019-03-15T22:17:50.032Z,7.20
2019-03-15T22:20:18.110Z,7.20
2019-03-15T22:22:46.082Z,7.20
2019-03-15T22:25:13.940Z,7.10
2019-03-15T22:27:41.835Z,7.10
2019-03-15T22:30:09.689Z,7.20
2019-03-15T22:32:37.574Z,7.20
2019-03-15T22:35:05.643Z,7.20
2019-03-15T22:37:33.783Z,7.20
2019-03-15T22:40:01.717Z,7.20
2019-03-15T22:42:29.763Z,7.10
2019-03-15T22:44:57.682Z,7.10
2019-03-15T22:47:25.643Z,7.10
2019-03-15T22:49:53.679Z,7.10
2019-03-15T22:52:21.667Z,7.10
2019-03-15T22:54:49.526Z,7.10
2019-03-15T22:57:17.422Z,7.00
2019-03-15T22:59:45.602Z,7.10
2019-03-15T23:02:13.617Z,7.00
2019-03-15T23:04:41.536Z,7.00
2019-03-15T23:07:09.795Z,7.10
2019-03-15T23:09:37.626Z,7.10
2019-03-15T23:12:05.487Z,7.00
2019-03-15T23:14:33.368Z,7.00
2019-03-15T23:17:01.197Z,7.00
2019-03-15T23:19:29.091Z,7.00
2019-03-15T23:21:56.950Z,6.90
2019-03-15T23:24:24.835Z,6.90
2019-03-15T23:26:52.661Z,6.90
2019-03-15T23:29:20.664Z,6.90
2019-03-15T23:31:48.823Z,6.80
2019-03-15T23:34:16.704Z,6.80
2019-03-15T23:36:44.547Z,6.80
2019-03-15T23:39:12.451Z,6.80
2019-03-15T23:41:40.244Z,6.80
2019-03-15T23:44:08.348Z,6.80
2019-03-15T23:46:36.269Z,6.80
2019-03-15T23:49:04.309Z,6.80
2019-03-15T23:51:32.061Z,6.80
2019-03-15T23:53:59.955Z,6.90
2019-03-15T23:56:27.799Z,6.90
2019-03-15T23:58:55.688Z,6.80
